Time;durP1;ratioP1;P1;durP2;ratioP2;P2;SDS_P1;SDS_P2;PMS_P1;PMS_P2;Temp;Humidity;BMP_temperature;BMP_pressure;BME280_temperature;BME280_humidity;BME280_pressure;Samples;Min_cycle;Max_cycle;Signal;HPM_P1;HPM_P2
2023/08/04 00:00:00;;;;;;;5.85;1.70;;;;;;;;;;513824;28;1431;-73
2023/08/04 00:00:16;;;;;;;3.90;1.40;;;;;;;;;;513885;28;1353;-73
2023/08/04 00:00:32;;;;;;;3.38;1.30;;;;;;;;;;513083;28;1140;-73
2023/08/04 00:00:47;;;;;;;4.00;1.45;;;;;;;;;;510315;28;1288;-73
2023/08/04 00:01:05;;;;;;;4.03;1.40;;;;;;;;;;510492;28;1050;-73
2023/08/04 00:01:27;;;;;;;3.83;1.35;;;;;;;;;;510158;28;1404;-73
2023/08/04 00:01:43;;;;;;;3.15;1.35;;;;;;;;;;510169;28;1386;-74
2023/08/04 00:02:01;;;;;;;3.15;1.40;;;;;;;;;;512040;28;1018;-74
2023/08/04 00:02:28;;;;;;;3.65;1.58;;;;;;;;;;510823;28;2057;-74
2023/08/04 00:02:45;;;;;;;4.50;1.60;;;;;;;;;;510755;28;1479;-73
2023/08/04 00:03:00;;;;;;;4.15;1.60;;;;;;;;;;510725;28;1984;-73
2023/08/04 00:03:19;;;;;;;4.23;1.50;;;;;;;;;;508959;28;1236;-74
2023/08/04 00:03:34;;;;;;;4.22;1.60;;;;;;;;;;510783;28;1328;-74
2023/08/04 00:03:51;;;;;;;4.60;1.63;;;;;;;;;;512292;28;1201;-76
2023/08/04 00:04:07;;;;;;;6.07;1.70;;;;;;;;;;512104;28;1142;-75
2023/08/04 00:04:26;;;;;;;6.57;1.80;;;;;;;;;;512071;28;1712;-74
2023/08/04 00:04:42;;;;;;;3.90;1.60;;;;;;;;;;510813;28;1360;-74
2023/08/04 00:05:07;;;;;;;3.50;1.40;;;;;;;;;;514885;28;1213;-75
2023/08/04 00:05:32;;;;;;;3.35;1.40;;;;;;;;;;514288;28;1086;-73
2023/08/04 00:05:47;;;;;;;4.85;1.60;;;;;;;;;;510269;28;1221;-74
2023/08/04 00:06:09;;;;;;;4.18;1.70;;;;;;;;;;511021;28;1278;-74
2023/08/04 00:06:33;;;;;;;3.33;1.42;;;;;;;;;;513463;28;1088;-73
2023/08/04 00:06:49;;;;;;;3.97;1.38;;;;;;;;;;515196;28;1629;-73
2023/08/04 00:07:08;;;;;;;4.57;1.60;;;;;;;;;;513529;28;1129;-73
2023/08/04 00:07:27;;;;;;;3.45;1.42;;;;;;;;;;513580;28;1192;-74
2023/08/04 00:07:46;;;;;;;2.63;1.23;;;;;;;;;;514351;28;1221;-74
2023/08/04 00:08:01;;;;;;;2.47;1.20;;;;;;;;;;516630;28;1137;-73
2023/08/04 00:08:20;;;;;;;3.27;1.30;;;;;;;;;;516792;28;1081;-75
2023/08/04 00:08:36;;;;;;;4.55;1.50;;;;;;;;;;514849;28;1915;-74
2023/08/04 00:08:52;;;;;;;4.00;1.40;;;;;;;;;;514264;28;975;-72
2023/08/04 00:09:08;;;;;;;3.13;1.40;;;;;;;;;;513761;28;1347;-74
2023/08/04 00:09:27;;;;;;;3.35;1.30;;;;;;;;;;512216;28;1117;-74
2023/08/04 00:09:43;;;;;;;4.13;1.40;;;;;;;;;;510909;28;1101;-74
2023/08/04 00:09:59;;;;;;;7.43;1.73;;;;;;;;;;511156;28;1129;-72
2023/08/04 00:10:15;;;;;;;7.60;1.70;;;;;;;;;;510764;28;1473;-74
2023/08/04 00:10:31;;;;;;;4.75;1.60;;;;;;;;;;512273;28;1002;-74
2023/08/04 00:10:46;;;;;;;3.35;1.40;;;;;;;;;;511915;28;1162;-72
2023/08/04 00:11:06;;;;;;;5.72;1.48;;;;;;;;;;513905;28;1165;-73
2023/08/04 00:11:21;;;;;;;5.30;1.50;;;;;;;;;;513574;28;1264;-73
2023/08/04 00:11:57;;;;;;;3.83;1.40;;;;;;;;;;513597;28;1438;-74
2023/08/04 00:12:13;;;;;;;2.80;1.30;;;;;;;;;;514351;28;1094;-73
2023/08/04 00:12:34;;;;;;;4.93;1.60;;;;;;;;;;513873;28;1265;-74
2023/08/04 00:12:52;;;;;;;5.03;1.73;;;;;;;;;;515712;28;2058;-73
2023/08/04 00:13:30;;;;;;;3.95;1.65;;;;;;;;;;516176;28;1101;-73
2023/08/04 00:13:48;;;;;;;4.85;1.60;;;;;;;;;;517779;28;907;-73
2023/08/04 00:14:04;;;;;;;5.13;1.60;;;;;;;;;;515447;28;1544;-72
2023/08/04 00:14:20;;;;;;;5.55;1.60;;;;;;;;;;515318;28;1374;-73
2023/08/04 00:14:36;;;;;;;4.95;1.60;;;;;;;;;;515355;28;1085;-73
2023/08/04 00:14:52;;;;;;;4.47;1.55;;;;;;;;;;516479;28;1237;-73
2023/08/04 00:15:08;;;;;;;4.75;1.60;;;;;;;;;;517235;28;982;-73
2023/08/04 00:15:27;;;;;;;5.75;1.67;;;;;;;;;;516866;28;1169;-71
2023/08/04 00:15:43;;;;;;;4.80;1.45;;;;;;;;;;517120;28;962;-73
2023/08/04 00:16:09;;;;;;;3.47;1.40;;;;;;;;;;515972;28;1349;-74
2023/08/04 00:16:45;;;;;;;4.90;1.67;;;;;;;;;;516367;28;902;-72
2023/08/04 00:17:01;;;;;;;3.50;1.40;;;;;;;;;;515722;28;1007;-73
2023/08/04 00:17:17;;;;;;;4.10;1.50;;;;;;;;;;513203;28;1275;-73
2023/08/04 00:17:53;;;;;;;4.28;1.45;;;;;;;;;;512387;28;1253;-72
2023/08/04 00:18:09;;;;;;;5.55;1.70;;;;;;;;;;514144;28;1706;-73
2023/08/04 00:18:30;;;;;;;5.50;1.70;;;;;;;;;;514645;28;1931;-73
2023/08/04 00:18:45;;;;;;;6.45;1.70;;;;;;;;;;512285;28;1529;-72
2023/08/04 00:19:01;;;;;;;4.95;1.67;;;;;;;;;;509859;28;1298;-72
2023/08/04 00:19:17;;;;;;;3.30;1.40;;;;;;;;;;512476;28;1197;-73
2023/08/04 00:19:33;;;;;;;3.05;1.30;;;;;;;;;;514150;28;1033;-73
2023/08/04 00:19:48;;;;;;;3.67;1.50;;;;;;;;;;513658;28;1441;-73
2023/08/04 00:20:08;;;;;;;4.97;1.70;;;;;;;;;;511461;28;932;-72
2023/08/04 00:20:44;;;;;;;6.07;1.70;;;;;;;;;;514383;28;893;-72
2023/08/04 00:21:00;;;;;;;3.30;1.35;;;;;;;;;;515886;28;1308;-72
2023/08/04 00:21:16;;;;;;;3.30;1.38;;;;;;;;;;514207;28;1461;-73
2023/08/04 00:21:40;;;;;;;4.10;1.50;;;;;;;;;;511253;28;1085;-73
2023/08/04 00:21:56;;;;;;;5.72;1.60;;;;;;;;;;511390;28;1295;-73
2023/08/04 00:22:15;;;;;;;3.72;1.40;;;;;;;;;;509344;28;1430;-73
2023/08/04 00:22:33;;;;;;;3.85;1.40;;;;;;;;;;509535;28;1125;-72
2023/08/04 00:22:52;;;;;;;3.58;1.42;;;;;;;;;;509507;28;1337;-75
2023/08/04 00:23:07;;;;;;;4.82;1.60;;;;;;;;;;509339;28;1702;-73
2023/08/04 00:23:43;;;;;;;5.53;1.60;;;;;;;;;;511986;28;1335;-73
2023/08/04 00:25:00;;;;;;;4.68;1.50;;;;;;;;;;513681;28;1296;-73
2023/08/04 00:25:16;;;;;;;3.55;1.60;;;;;;;;;;518226;28;1544;-73
2023/08/04 00:25:32;;;;;;;4.95;1.50;;;;;;;;;;518988;28;1180;-71
2023/08/04 00:25:47;;;;;;;5.18;1.50;;;;;;;;;;517950;28;1366;-73
2023/08/04 00:26:03;;;;;;;4.27;1.50;;;;;;;;;;515875;28;1193;-72
2023/08/04 00:26:19;;;;;;;4.15;1.52;;;;;;;;;;515937;28;1332;-73
2023/08/04 00:27:13;;;;;;;3.65;1.30;;;;;;;;;;511040;28;958;-73
2023/08/04 00:27:20;;;;;;;4.65;1.42;;;;;;;;;;515579;28;1041;-72
2023/08/04 00:27:49;;;;;;;3.73;1.43;;;;;;;;;;513407;28;1300;-72
2023/08/04 00:28:05;;;;;;;5.20;1.52;;;;;;;;;;518437;28;1506;-73
2023/08/04 00:28:22;;;;;;;5.07;1.70;;;;;;;;;;516670;28;933;-73
2023/08/04 00:28:40;;;;;;;3.85;1.60;;;;;;;;;;516318;28;1474;-72
2023/08/04 00:28:56;;;;;;;3.33;1.48;;;;;;;;;;515133;28;1187;-73
2023/08/04 00:29:32;;;;;;;3.80;1.50;;;;;;;;;;514451;28;1156;-73
2023/08/04 00:29:48;;;;;;;5.70;1.75;;;;;;;;;;511806;28;1589;-73
2023/08/04 00:30:09;;;;;;;7.50;1.60;;;;;;;;;;510368;28;1172;-73
2023/08/04 00:30:26;;;;;;;6.50;1.65;;;;;;;;;;509937;28;1394;-72
2023/08/04 00:30:42;;;;;;;4.88;1.83;;;;;;;;;;510750;28;1392;-71
2023/08/04 00:31:41;;;;;;;4.22;1.58;;;;;;;;;;509436;28;1734;-73
2023/08/04 00:31:57;;;;;;;4.22;1.50;;;;;;;;;;512273;28;1461;-73
2023/08/04 00:32:15;;;;;;;4.70;1.60;;;;;;;;;;514199;28;974;-73
2023/08/04 00:32:30;;;;;;;4.68;1.60;;;;;;;;;;511616;28;1646;-73
2023/08/04 00:32:47;;;;;;;4.80;1.58;;;;;;;;;;512645;28;1459;-73
2023/08/04 00:33:05;;;;;;;4.55;1.50;;;;;;;;;;515076;28;994;-73
2023/08/04 00:33:22;;;;;;;3.50;1.50;;;;;;;;;;515564;28;1160;-72
2023/08/04 00:33:37;;;;;;;3.20;1.48;;;;;;;;;;513259;28;1396;-72
2023/08/04 00:33:55;;;;;;;3.38;1.40;;;;;;;;;;513947;28;1433;-73
2023/08/04 00:34:13;;;;;;;3.50;1.40;;;;;;;;;;514795;28;1458;-71
2023/08/04 00:34:29;;;;;;;3.05;1.30;;;;;;;;;;512183;28;1337;-72
2023/08/04 00:35:05;;;;;;;3.73;1.50;;;;;;;;;;514963;28;1082;-73
2023/08/04 00:35:24;;;;;;;4.38;1.80;;;;;;;;;;512327;28;1451;-73
2023/08/04 00:35:40;;;;;;;4.07;1.70;;;;;;;;;;513204;28;1145;-71
2023/08/04 00:36:01;;;;;;;4.53;1.75;;;;;;;;;;515776;28;1173;-72
2023/08/04 00:36:20;;;;;;;4.05;1.55;;;;;;;;;;511999;28;1466;-72
2023/08/04 00:36:36;;;;;;;4.25;1.58;;;;;;;;;;513571;28;1548;-72
2023/08/04 00:36:51;;;;;;;4.27;1.60;;;;;;;;;;512897;28;1153;-72
2023/08/04 00:37:07;;;;;;;4.10;1.55;;;;;;;;;;513194;28;1090;-71
2023/08/04 00:37:23;;;;;;;4.18;1.58;;;;;;;;;;512501;28;1316;-73
2023/08/04 00:37:39;;;;;;;3.57;1.50;;;;;;;;;;512507;28;1093;-71
2023/08/04 00:37:54;;;;;;;5.65;1.70;;;;;;;;;;511226;28;1243;-72
2023/08/04 00:38:10;;;;;;;6.30;1.73;;;;;;;;;;509929;28;1274;-72
2023/08/04 00:38:25;;;;;;;3.17;1.40;;;;;;;;;;512197;28;2028;-72
2023/08/04 00:38:47;;;;;;;4.13;1.60;;;;;;;;;;513926;28;955;-73
2023/08/04 00:39:03;;;;;;;6.03;1.75;;;;;;;;;;511958;28;1440;-72
2023/08/04 00:39:19;;;;;;;5.65;1.58;;;;;;;;;;513935;28;1359;-72
2023/08/04 00:39:34;;;;;;;4.25;1.55;;;;;;;;;;513952;28;959;-73
2023/08/04 00:39:50;;;;;;;3.28;1.40;;;;;;;;;;513944;28;1381;-72
2023/08/04 00:40:07;;;;;;;2.57;1.30;;;;;;;;;;515559;28;999;-73
2023/08/04 00:40:22;;;;;;;3.15;1.40;;;;;;;;;;513647;28;1517;-73
2023/08/04 00:40:38;;;;;;;3.33;1.30;;;;;;;;;;512039;28;1346;-72
2023/08/04 00:40:54;;;;;;;3.38;1.30;;;;;;;;;;512194;28;1170;-72
2023/08/04 00:41:10;;;;;;;3.95;1.40;;;;;;;;;;513561;28;1328;-73
2023/08/04 00:41:26;;;;;;;4.30;1.47;;;;;;;;;;515008;28;974;-73
2023/08/04 00:41:44;;;;;;;4.28;1.65;;;;;;;;;;514584;28;1088;-72
2023/08/04 00:42:00;;;;;;;3.88;1.48;;;;;;;;;;514945;28;1105;-73
2023/08/04 00:42:20;;;;;;;4.10;1.48;;;;;;;;;;515788;28;1343;-72
2023/08/04 00:42:36;;;;;;;3.83;1.45;;;;;;;;;;514845;28;1225;-73
2023/08/04 00:42:52;;;;;;;4.05;1.55;;;;;;;;;;512348;28;1533;-73
2023/08/04 00:43:15;;;;;;;4.22;1.52;;;;;;;;;;513037;28;1056;-72
2023/08/04 00:43:31;;;;;;;5.05;1.42;;;;;;;;;;513068;28;1424;-73
2023/08/04 00:43:47;;;;;;;4.63;1.60;;;;;;;;;;513101;28;1589;-72
2023/08/04 00:44:02;;;;;;;4.13;1.55;;;;;;;;;;513141;28;1193;-74
2023/08/04 00:44:18;;;;;;;4.25;1.60;;;;;;;;;;514924;28;1354;-72
2023/08/04 00:44:37;;;;;;;4.55;1.63;;;;;;;;;;515076;28;1337;-73
2023/08/04 00:45:04;;;;;;;4.85;1.60;;;;;;;;;;513540;28;1343;-73
2023/08/04 00:45:20;;;;;;;4.10;1.50;;;;;;;;;;512010;28;1469;-72
2023/08/04 00:45:36;;;;;;;5.07;1.65;;;;;;;;;;513736;28;983;-73
2023/08/04 00:46:12;;;;;;;5.40;1.70;;;;;;;;;;513377;28;1390;-73
2023/08/04 00:46:29;;;;;;;5.70;1.63;;;;;;;;;;513931;28;1089;-72
2023/08/04 00:46:45;;;;;;;4.05;1.55;;;;;;;;;;514370;28;1288;-73
2023/08/04 00:47:01;;;;;;;4.67;1.50;;;;;;;;;;515626;28;1351;-72
2023/08/04 00:47:17;;;;;;;5.93;1.60;;;;;;;;;;517864;28;1421;-72
2023/08/04 00:47:35;;;;;;;6.15;1.58;;;;;;;;;;517264;28;1564;-73
2023/08/04 00:47:52;;;;;;;5.32;1.73;;;;;;;;;;515366;28;1384;-73
2023/08/04 00:48:08;;;;;;;4.30;1.70;;;;;;;;;;514879;28;1534;-72
2023/08/04 00:48:23;;;;;;;4.22;1.58;;;;;;;;;;515208;28;1354;-72
2023/08/04 00:48:39;;;;;;;4.00;1.50;;;;;;;;;;514040;28;1332;-71
2023/08/04 00:48:54;;;;;;;3.25;1.60;;;;;;;;;;512365;28;1293;-72
2023/08/04 00:49:10;;;;;;;4.05;1.70;;;;;;;;;;514913;28;1297;-72
2023/08/04 00:49:26;;;;;;;4.77;1.70;;;;;;;;;;517036;28;1402;-71
2023/08/04 00:49:45;;;;;;;4.20;1.60;;;;;;;;;;514631;28;1274;-73
2023/08/04 00:50:03;;;;;;;4.07;1.50;;;;;;;;;;512395;28;1089;-72
2023/08/04 00:50:19;;;;;;;4.57;1.70;;;;;;;;;;508315;28;1207;-72
2023/08/04 00:50:40;;;;;;;4.63;1.75;;;;;;;;;;511818;28;1323;-72
2023/08/04 00:50:56;;;;;;;3.75;1.60;;;;;;;;;;513020;28;942;-72
2023/08/04 00:51:32;;;;;;;4.22;1.73;;;;;;;;;;512189;28;1464;-73
2023/08/04 00:51:48;;;;;;;5.82;1.80;;;;;;;;;;512720;28;1022;-72
2023/08/04 00:52:04;;;;;;;6.45;1.67;;;;;;;;;;510062;28;1323;-72
2023/08/04 00:52:20;;;;;;;5.55;1.63;;;;;;;;;;509082;28;1373;-72
2023/08/04 00:52:38;;;;;;;5.93;1.88;;;;;;;;;;508370;28;1352;-72
2023/08/04 00:52:54;;;;;;;5.85;1.80;;;;;;;;;;511367;28;1349;-72
2023/08/04 00:53:11;;;;;;;5.32;1.80;;;;;;;;;;512065;28;1458;-72
2023/08/04 00:53:27;;;;;;;5.82;1.80;;;;;;;;;;508375;28;1382;-72
2023/08/04 00:53:43;;;;;;;4.97;1.70;;;;;;;;;;509615;28;1402;-72
2023/08/04 00:54:22;;;;;;;4.93;1.77;;;;;;;;;;512278;28;1387;-72
2023/08/04 00:55:18;;;;;;;6.80;1.70;;;;;;;;;;514343;28;1221;-72
2023/08/04 00:55:34;;;;;;;4.82;1.73;;;;;;;;;;515306;28;1219;-72
2023/08/04 00:55:50;;;;;;;5.07;1.80;;;;;;;;;;516655;28;1249;-72
2023/08/04 00:56:06;;;;;;;5.57;2.05;;;;;;;;;;516193;28;1290;-73
2023/08/04 00:56:45;;;;;;;5.63;1.98;;;;;;;;;;514155;28;1333;-72
2023/08/04 00:57:02;;;;;;;4.43;1.67;;;;;;;;;;512378;28;1310;-72
2023/08/04 00:57:20;;;;;;;4.40;1.70;;;;;;;;;;512789;28;1346;-72
2023/08/04 00:57:39;;;;;;;5.00;2.00;;;;;;;;;;510398;28;1268;-72
2023/08/04 00:57:56;;;;;;;6.35;1.80;;;;;;;;;;510744;28;1351;-72
2023/08/04 00:58:12;;;;;;;5.88;1.75;;;;;;;;;;512743;28;1445;-73
2023/08/04 00:58:29;;;;;;;5.37;2.07;;;;;;;;;;514345;28;1256;-72
2023/08/04 00:58:48;;;;;;;5.20;2.05;;;;;;;;;;513887;28;929;-72
2023/08/04 00:59:04;;;;;;;5.53;1.80;;;;;;;;;;513501;28;1204;-72
2023/08/04 00:59:20;;;;;;;5.47;1.80;;;;;;;;;;510434;28;1281;-72
2023/08/04 00:59:36;;;;;;;4.93;1.70;;;;;;;;;;512508;28;1105;-72
2023/08/04 00:59:55;;;;;;;5.47;1.80;;;;;;;;;;511582;28;1378;-72
2023/08/04 01:00:12;;;;;;;6.38;1.90;;;;;;;;;;510027;28;1166;-74
2023/08/04 01:00:47;;;;;;;5.45;1.85;;;;;;;;;;510220;28;1463;-72
2023/08/04 01:01:03;;;;;;;3.47;1.70;;;;;;;;;;511301;28;1232;-72
2023/08/04 01:01:18;;;;;;;5.75;1.90;;;;;;;;;;513380;28;1193;-72
2023/08/04 01:01:34;;;;;;;5.63;1.80;;;;;;;;;;512476;28;1201;-71
2023/08/04 01:01:50;;;;;;;5.07;1.75;;;;;;;;;;510931;28;1287;-72
2023/08/04 01:02:06;;;;;;;4.85;1.80;;;;;;;;;;509408;28;1318;-72
2023/08/04 01:02:24;;;;;;;3.55;1.75;;;;;;;;;;509311;28;1474;-72
2023/08/04 01:02:40;;;;;;;3.65;1.80;;;;;;;;;;510231;28;1413;-72
2023/08/04 01:03:25;;;;;;;3.88;1.73;;;;;;;;;;508624;28;1422;-71
2023/08/04 01:03:44;;;;;;;4.97;1.90;;;;;;;;;;508497;28;1345;-72
2023/08/04 01:04:00;;;;;;;5.88;1.80;;;;;;;;;;510411;28;1315;-72
2023/08/04 01:04:17;;;;;;;6.88;1.83;;;;;;;;;;511060;28;1324;-72
2023/08/04 01:04:33;;;;;;;5.35;2.00;;;;;;;;;;512617;28;1386;-72
2023/08/04 01:04:52;;;;;;;4.13;1.80;;;;;;;;;;513944;28;1415;-72
2023/08/04 01:05:12;;;;;;;3.28;1.70;;;;;;;;;;512772;28;1305;-72
2023/08/04 01:05:36;;;;;;;5.03;1.90;;;;;;;;;;511125;28;1366;-72
2023/08/04 01:06:36;;;;;;;5.22;1.75;;;;;;;;;;515351;28;1597;-72
2023/08/04 01:07:04;;;;;;;4.47;1.88;;;;;;;;;;503653;29;932;-73
2023/08/04 01:07:25;;;;;;;4.55;1.65;;;;;;;;;;507200;28;1486;-72
2023/08/04 01:07:58;;;;;;;4.85;1.60;;;;;;;;;;505630;28;1385;-72
2023/08/04 01:08:21;;;;;;;4.38;1.90;;;;;;;;;;505614;28;1376;-72
2023/08/04 01:08:42;;;;;;;5.88;2.00;;;;;;;;;;505007;28;936;-73
2023/08/04 01:09:31;;;;;;;4.78;1.88;;;;;;;;;;503483;29;1387;-72
2023/08/04 01:10:11;;;;;;;6.20;2.10;;;;;;;;;;500579;29;1575;-73
2023/08/04 01:10:58;;;;;;;4.40;1.60;;;;;;;;;;500171;29;1104;-73
2023/08/04 01:11:22;;;;;;;4.53;1.83;;;;;;;;;;503623;29;1430;-73
2023/08/04 01:11:55;;;;;;;4.18;1.98;;;;;;;;;;505012;28;1419;-73
2023/08/04 01:12:39;;;;;;;4.82;1.70;;;;;;;;;;507498;28;1285;-73
2023/08/04 01:13:00;;;;;;;4.20;1.90;;;;;;;;;;506423;28;929;-73
2023/08/04 01:13:28;;;;;;;5.53;1.98;;;;;;;;;;506223;28;1153;-72
2023/08/04 01:13:47;;;;;;;6.65;1.80;;;;;;;;;;505391;28;1611;-73
2023/08/04 01:14:03;;;;;;;5.88;1.85;;;;;;;;;;505789;28;1370;-73
2023/08/04 01:14:20;;;;;;;6.13;1.90;;;;;;;;;;503655;29;1091;-73
2023/08/04 01:15:17;;;;;;;4.95;1.88;;;;;;;;;;506034;28;1296;-73
2023/08/04 01:16:35;;;;;;;4.90;2.00;;;;;;;;;;500073;29;1242;-73
2023/08/04 01:16:48;;;;;;;6.07;1.90;;;;;;;;;;508012;28;1160;-73
2023/08/04 01:17:49;;;;;;;5.67;1.97;;;;;;;;;;506718;28;1443;-73
2023/08/04 01:18:05;;;;;;;6.30;1.80;;;;;;;;;;506481;28;1601;-72
2023/08/04 01:18:21;;;;;;;6.03;1.90;;;;;;;;;;507027;28;1947;-73
2023/08/04 01:18:37;;;;;;;4.07;1.73;;;;;;;;;;506382;28;1356;-73
2023/08/04 01:18:58;;;;;;;4.70;1.80;;;;;;;;;;506106;28;1803;-74
2023/08/04 01:19:17;;;;;;;4.75;1.90;;;;;;;;;;506392;28;1293;-73
2023/08/04 01:19:33;;;;;;;4.90;1.80;;;;;;;;;;506603;28;978;-73
2023/08/04 01:19:48;;;;;;;4.40;1.80;;;;;;;;;;505927;28;1436;-73
2023/08/04 01:20:07;;;;;;;4.47;1.83;;;;;;;;;;506721;28;1415;-72
2023/08/04 01:20:24;;;;;;;5.28;1.90;;;;;;;;;;503362;29;995;-73
2023/08/04 01:20:42;;;;;;;5.97;1.95;;;;;;;;;;505852;28;1566;-71
2023/08/04 01:21:04;;;;;;;5.30;1.90;;;;;;;;;;505620;28;1454;-71
2023/08/04 01:21:20;;;;;;;4.60;1.98;;;;;;;;;;501177;29;1048;-72
2023/08/04 01:21:45;;;;;;;4.07;1.70;;;;;;;;;;502641;29;1155;-72
2023/08/04 01:22:00;;;;;;;5.47;1.80;;;;;;;;;;503529;29;1301;-72
2023/08/04 01:22:16;;;;;;;5.03;1.70;;;;;;;;;;504378;29;1397;-71
2023/08/04 01:22:33;;;;;;;5.63;1.90;;;;;;;;;;506854;28;1392;-72
2023/08/04 01:23:08;;;;;;;6.30;1.90;;;;;;;;;;507030;28;900;-71
2023/08/04 01:23:27;;;;;;;6.15;1.80;;;;;;;;;;505340;28;1822;-74
2023/08/04 01:23:43;;;;;;;6.28;1.88;;;;;;;;;;505864;28;1036;-73
2023/08/04 01:23:58;;;;;;;5.95;2.00;;;;;;;;;;505131;28;1441;-73
2023/08/04 01:24:34;;;;;;;5.73;2.00;;;;;;;;;;506451;28;1320;-73
2023/08/04 01:24:54;;;;;;;4.72;1.90;;;;;;;;;;502611;29;1436;-73
2023/08/04 01:25:10;;;;;;;4.85;2.00;;;;;;;;;;502701;29;1155;-73
2023/08/04 01:25:36;;;;;;;6.35;1.92;;;;;;;;;;506191;28;1269;-72
2023/08/04 01:25:51;;;;;;;7.93;2.00;;;;;;;;;;506121;28;1242;-73
2023/08/04 01:26:10;;;;;;;9.60;1.85;;;;;;;;;;505743;28;1218;-72
2023/08/04 01:26:46;;;;;;;7.38;1.80;;;;;;;;;;504343;28;1444;-73
2023/08/04 01:27:05;;;;;;;5.93;1.95;;;;;;;;;;506053;28;993;-73
2023/08/04 01:27:39;;;;;;;5.90;1.90;;;;;;;;;;506460;28;1678;-73
2023/08/04 01:28:03;;;;;;;5.38;1.90;;;;;;;;;;506760;28;1036;-73
2023/08/04 01:28:23;;;;;;;4.97;1.90;;;;;;;;;;506475;28;987;-73
2023/08/04 01:28:40;;;;;;;4.47;1.92;;;;;;;;;;504760;28;1312;-72
2023/08/04 01:28:56;;;;;;;5.32;1.90;;;;;;;;;;506108;28;1404;-73
2023/08/04 01:29:15;;;;;;;5.40;2.00;;;;;;;;;;506010;28;984;-72
2023/08/04 01:29:30;;;;;;;5.93;1.85;;;;;;;;;;505388;28;928;-73
2023/08/04 01:29:47;;;;;;;5.43;1.90;;;;;;;;;;507593;28;1325;-73
2023/08/04 01:30:05;;;;;;;4.43;1.80;;;;;;;;;;507751;28;1475;-73
2023/08/04 01:30:28;;;;;;;5.50;1.80;;;;;;;;;;508163;28;1889;-73
2023/08/04 01:30:52;;;;;;;4.85;1.88;;;;;;;;;;508287;28;1212;-73
2023/08/04 01:31:08;;;;;;;4.57;2.00;;;;;;;;;;508498;28;956;-73
2023/08/04 01:31:27;;;;;;;4.47;1.90;;;;;;;;;;508653;28;2140;-73
2023/08/04 01:31:44;;;;;;;5.22;1.95;;;;;;;;;;508108;28;1421;-73
2023/08/04 01:32:19;;;;;;;5.15;1.92;;;;;;;;;;506636;28;916;-73
2023/08/04 01:32:35;;;;;;;5.85;1.98;;;;;;;;;;506645;28;1257;-74
2023/08/04 01:32:50;;;;;;;5.45;1.95;;;;;;;;;;505674;28;1471;-73
2023/08/04 01:33:06;;;;;;;5.43;1.97;;;;;;;;;;507078;28;969;-73
2023/08/04 01:33:22;;;;;;;4.93;1.90;;;;;;;;;;504900;28;1888;-74
2023/08/04 01:33:39;;;;;;;3.80;1.70;;;;;;;;;;504433;28;1041;-73
2023/08/04 01:33:57;;;;;;;3.70;1.70;;;;;;;;;;503633;28;1353;-73
2023/08/04 01:34:13;;;;;;;4.00;1.80;;;;;;;;;;506403;28;1363;-72
2023/08/04 01:34:28;;;;;;;4.20;1.70;;;;;;;;;;503498;28;1207;-73
2023/08/04 01:34:47;;;;;;;4.53;1.70;;;;;;;;;;505740;28;1402;-73
2023/08/04 01:35:09;;;;;;;4.32;1.85;;;;;;;;;;504172;28;1300;-73
2023/08/04 01:35:26;;;;;;;4.47;1.80;;;;;;;;;;504383;28;1346;-73
2023/08/04 01:35:44;;;;;;;4.43;1.83;;;;;;;;;;504659;28;1324;-73
2023/08/04 01:36:00;;;;;;;4.63;2.05;;;;;;;;;;502615;29;1243;-72
2023/08/04 01:36:16;;;;;;;4.53;2.00;;;;;;;;;;502761;29;1258;-74
2023/08/04 01:36:31;;;;;;;4.47;2.10;;;;;;;;;;502693;29;1222;-73
2023/08/04 01:36:47;;;;;;;4.47;2.17;;;;;;;;;;504751;28;1305;-73
2023/08/04 01:37:03;;;;;;;5.47;2.10;;;;;;;;;;506089;28;983;-73
2023/08/04 01:37:22;;;;;;;6.35;2.08;;;;;;;;;;504763;28;1103;-73
2023/08/04 01:37:38;;;;;;;5.78;2.13;;;;;;;;;;504612;28;1900;-73
2023/08/04 01:37:56;;;;;;;5.00;2.03;;;;;;;;;;507014;28;1273;-73
2023/08/04 01:38:21;;;;;;;5.25;1.80;;;;;;;;;;508605;28;1396;-73
2023/08/04 01:38:40;;;;;;;6.53;2.20;;;;;;;;;;506713;28;1287;-73
2023/08/04 01:38:59;;;;;;;6.97;2.25;;;;;;;;;;504418;28;1128;-73
2023/08/04 01:39:15;;;;;;;5.60;2.00;;;;;;;;;;504505;28;1373;-73
2023/08/04 01:39:31;;;;;;;4.63;1.83;;;;;;;;;;504162;28;930;-73
2023/08/04 01:39:50;;;;;;;4.70;1.90;;;;;;;;;;505474;28;1147;-73
2023/08/04 01:40:06;;;;;;;4.75;2.00;;;;;;;;;;506173;28;1118;-73
2023/08/04 01:40:22;;;;;;;4.30;1.90;;;;;;;;;;506094;28;1182;-72
2023/08/04 01:40:38;;;;;;;4.75;2.00;;;;;;;;;;508497;28;933;-73
2023/08/04 01:40:56;;;;;;;4.10;1.85;;;;;;;;;;508639;28;1356;-73
2023/08/04 01:41:12;;;;;;;4.30;1.85;;;;;;;;;;509313;28;1123;-74
2023/08/04 01:41:28;;;;;;;5.43;1.90;;;;;;;;;;506366;28;1130;-73
2023/08/04 01:41:49;;;;;;;5.43;1.93;;;;;;;;;;506777;28;1122;-73
2023/08/04 01:42:07;;;;;;;4.37;2.00;;;;;;;;;;516227;28;1093;-73
2023/08/04 01:42:23;;;;;;;4.57;1.92;;;;;;;;;;515319;28;1326;-73
2023/08/04 01:42:40;;;;;;;4.97;1.83;;;;;;;;;;513852;28;1406;-73
2023/08/04 01:42:55;;;;;;;5.75;1.77;;;;;;;;;;511552;28;1550;-74
2023/08/04 01:43:11;;;;;;;6.18;1.90;;;;;;;;;;511355;28;1097;-73
2023/08/04 01:43:27;;;;;;;4.47;1.80;;;;;;;;;;513720;28;1319;-74
2023/08/04 01:43:46;;;;;;;4.23;1.70;;;;;;;;;;511981;28;1127;-72
2023/08/04 01:44:04;;;;;;;4.55;1.88;;;;;;;;;;510358;28;1289;-72
2023/08/04 01:44:20;;;;;;;5.47;2.00;;;;;;;;;;508815;28;978;-73
2023/08/04 01:44:41;;;;;;;5.35;2.03;;;;;;;;;;506961;28;1257;-74
2023/08/04 01:44:59;;;;;;;5.32;1.90;;;;;;;;;;509602;28;1918;-73
2023/08/04 01:45:18;;;;;;;6.28;1.90;;;;;;;;;;509943;28;1535;-73
2023/08/04 01:45:45;;;;;;;5.90;1.85;;;;;;;;;;512874;28;1057;-73
2023/08/04 01:46:03;;;;;;;5.05;1.80;;;;;;;;;;515561;28;1489;-73
2023/08/04 01:46:19;;;;;;;5.65;1.90;;;;;;;;;;515659;28;1113;-73
2023/08/04 01:46:55;;;;;;;4.87;1.80;;;;;;;;;;515467;28;1299;-73
2023/08/04 01:47:10;;;;;;;4.93;1.90;;;;;;;;;;517056;28;1504;-73
2023/08/04 01:47:26;;;;;;;4.57;1.75;;;;;;;;;;517265;28;937;-73
2023/08/04 01:47:41;;;;;;;4.87;1.80;;;;;;;;;;515141;28;1190;-73
2023/08/04 01:47:57;;;;;;;4.93;1.90;;;;;;;;;;513521;28;1246;-73
2023/08/04 01:48:13;;;;;;;4.97;1.90;;;;;;;;;;512862;28;971;-73
2023/08/04 01:48:28;;;;;;;5.50;1.90;;;;;;;;;;513679;28;1382;-73
2023/08/04 01:48:44;;;;;;;4.95;1.92;;;;;;;;;;514784;28;1050;-73
2023/08/04 01:49:03;;;;;;;4.70;2.07;;;;;;;;;;513445;28;1389;-73
2023/08/04 01:49:18;;;;;;;5.40;2.05;;;;;;;;;;513634;28;915;-73
2023/08/04 01:49:54;;;;;;;5.80;2.13;;;;;;;;;;512759;28;1116;-73
2023/08/04 01:50:10;;;;;;;5.15;2.00;;;;;;;;;;512886;28;1181;-73
2023/08/04 01:51:07;;;;;;;5.30;2.00;;;;;;;;;;514329;28;1077;-73
2023/08/04 01:51:23;;;;;;;6.15;2.25;;;;;;;;;;518377;28;1213;-73
2023/08/04 01:51:38;;;;;;;5.03;2.17;;;;;;;;;;517832;28;916;-72
2023/08/04 01:51:54;;;;;;;5.85;2.22;;;;;;;;;;518041;28;1236;-73
2023/08/04 01:52:13;;;;;;;6.80;2.20;;;;;;;;;;517136;28;1159;-72
2023/08/04 01:52:29;;;;;;;5.22;2.10;;;;;;;;;;516472;28;961;-74
2023/08/04 01:52:45;;;;;;;5.90;2.22;;;;;;;;;;516839;28;1263;-73
2023/08/04 01:53:03;;;;;;;5.73;2.20;;;;;;;;;;516226;28;1283;-74
2023/08/04 01:53:19;;;;;;;5.55;2.17;;;;;;;;;;513828;28;1237;-72
2023/08/04 01:53:35;;;;;;;5.80;2.30;;;;;;;;;;513417;28;1271;-72
2023/08/04 01:53:51;;;;;;;5.97;2.40;;;;;;;;;;513223;28;939;-71
2023/08/04 01:54:07;;;;;;;5.90;2.40;;;;;;;;;;515123;28;994;-72
2023/08/04 01:54:26;;;;;;;5.88;2.40;;;;;;;;;;515475;28;1125;-72
2023/08/04 01:54:42;;;;;;;6.35;2.40;;;;;;;;;;514246;28;1155;-73
2023/08/04 01:54:58;;;;;;;5.70;2.40;;;;;;;;;;515280;28;1290;-73
2023/08/04 01:55:14;;;;;;;5.10;2.30;;;;;;;;;;515465;28;965;-73
2023/08/04 01:55:33;;;;;;;6.75;2.35;;;;;;;;;;512790;28;1313;-73
2023/08/04 01:55:48;;;;;;;7.47;2.15;;;;;;;;;;512316;28;1953;-73
2023/08/04 01:56:04;;;;;;;5.78;2.20;;;;;;;;;;511256;28;1532;-70
2023/08/04 01:56:20;;;;;;;4.57;2.20;;;;;;;;;;509589;28;1153;-73
2023/08/04 01:56:36;;;;;;;6.05;2.15;;;;;;;;;;509873;28;1260;-72
2023/08/04 01:56:54;;;;;;;6.10;2.13;;;;;;;;;;509527;28;1365;-72
2023/08/04 01:57:10;;;;;;;6.03;2.28;;;;;;;;;;510006;28;1209;-72
2023/08/04 01:57:26;;;;;;;5.60;2.33;;;;;;;;;;511124;28;1008;-72
2023/08/04 01:57:41;;;;;;;5.65;2.40;;;;;;;;;;511942;28;1109;-75
2023/08/04 01:58:00;;;;;;;5.70;2.30;;;;;;;;;;512732;28;1207;-72
2023/08/04 01:58:16;;;;;;;5.72;2.33;;;;;;;;;;511091;28;1936;-72
2023/08/04 01:58:31;;;;;;;6.47;2.30;;;;;;;;;;511624;28;961;-72
2023/08/04 01:58:47;;;;;;;5.13;2.10;;;;;;;;;;514519;28;1022;-72
2023/08/04 01:59:03;;;;;;;5.72;2.20;;;;;;;;;;514988;28;1057;-72
2023/08/04 01:59:19;;;;;;;7.95;2.50;;;;;;;;;;515108;28;1266;-71
2023/08/04 01:59:35;;;;;;;6.68;2.55;;;;;;;;;;514925;28;1442;-72
2023/08/04 01:59:54;;;;;;;5.53;2.27;;;;;;;;;;514490;28;946;-73
2023/08/04 02:00:11;;;;;;;6.07;2.20;;;;;;;;;;514688;28;1439;-72
2023/08/04 02:00:29;;;;;;;4.90;2.17;;;;;;;;;;514843;28;1501;-70
2023/08/04 02:00:45;;;;;;;5.75;2.30;;;;;;;;;;514047;28;1240;-72
2023/08/04 02:01:09;;;;;;;6.18;2.30;;;;;;;;;;511153;28;1362;-72
2023/08/04 02:01:30;;;;;;;3.28;1.90;;;;;;;;;;511035;28;935;-73
2023/08/04 02:01:46;;;;;;;4.13;1.95;;;;;;;;;;509281;28;1240;-72
2023/08/04 02:02:02;;;;;;;5.10;2.20;;;;;;;;;;508067;28;1390;-72
2023/08/04 02:02:18;;;;;;;5.40;2.33;;;;;;;;;;510561;28;1121;-72
2023/08/04 02:02:34;;;;;;;6.00;2.50;;;;;;;;;;509727;28;1282;-72
2023/08/04 02:02:50;;;;;;;6.57;2.53;;;;;;;;;;510452;28;999;-72
2023/08/04 02:03:06;;;;;;;5.60;2.38;;;;;;;;;;512999;28;1439;-72
2023/08/04 02:03:27;;;;;;;4.55;2.20;;;;;;;;;;512964;28;1970;-74